Time;durP1;ratioP1;P1;durP2;ratioP2;P2;SDS_P1;SDS_P2;PMS_P1;PMS_P2;Temp;Humidity;BMP_temperature;BMP_pressure;BME280_temperature;BME280_humidity;BME280_pressure;Samples;Min_cycle;Max_cycle;Signal;HPM_P1;HPM_P2
2021/10/27 00:00:23;;;;;;;19.03;11.60;;;;;;;7.86;100.00;99635.19;5007876;28;20448;-56
2021/10/27 00:02:49;;;;;;;15.63;11.30;;;;;;;7.86;100.00;99629.22;5008064;28;20041;-56
2021/10/27 00:05:15;;;;;;;16.93;11.87;;;;;;;7.94;100.00;99635.22;5012446;28;20057;-56
2021/10/27 00:07:40;;;;;;;16.40;11.53;;;;;;;7.87;100.00;99629.25;5007013;28;20045;-55
2021/10/27 00:10:06;;;;;;;16.93;10.97;;;;;;;7.83;100.00;99630.06;5007138;28;20033;-55
2021/10/27 00:12:31;;;;;;;15.93;11.20;;;;;;;7.78;100.00;99634.28;5017915;28;20038;-54
2021/10/27 00:14:57;;;;;;;19.20;12.60;;;;;;;7.69;100.00;99632.50;5012442;28;20452;-54
2021/10/27 00:17:23;;;;;;;18.83;11.73;;;;;;;7.74;100.00;99630.84;5003459;28;20053;-52
2021/10/27 00:19:49;;;;;;;15.60;12.00;;;;;;;7.66;100.00;99634.16;5008768;28;20039;-55
2021/10/27 00:22:15;;;;;;;16.10;11.20;;;;;;;7.56;100.00;99630.69;5009722;28;20040;-56
2021/10/27 00:24:40;;;;;;;18.43;12.00;;;;;;;7.63;100.00;99634.16;5010892;28;20033;-52
2021/10/27 00:27:07;;;;;;;19.23;11.20;;;;;;;7.50;100.00;99634.88;5006512;28;20469;-53
2021/10/27 00:29:34;;;;;;;17.90;11.27;;;;;;;7.58;100.00;99633.25;5005724;28;20061;-56
2021/10/27 00:31:59;;;;;;;16.20;12.00;;;;;;;7.45;100.00;99633.97;5011978;28;20042;-54
2021/10/27 00:34:25;;;;;;;17.43;10.80;;;;;;;7.68;100.00;99635.06;5012414;28;20137;-56
2021/10/27 00:36:50;;;;;;;18.73;12.23;;;;;;;7.63;100.00;99631.59;5008925;28;20092;-56
2021/10/27 00:39:15;;;;;;;19.23;12.47;;;;;;;7.67;100.00;99626.53;5009412;28;20036;-57
2021/10/27 00:41:46;;;;;;;14.23;10.97;;;;;;;8.03;100.00;99637.88;5008045;28;20125;-54
2021/10/27 00:44:25;;;;;;;14.93;11.63;;;;;;;7.94;100.00;99615.66;5008596;28;20030;-54
2021/10/27 00:47:11;;;;;;;18.50;10.57;;;;;;;8.01;100.00;99621.69;5005865;28;20045;-55
2021/10/27 00:49:37;;;;;;;;;;;;;;;8.07;100.00;99614.91;5015872;28;20116;-57
2021/10/27 00:52:05;;;;;;;17.43;9.37;;;;;;;8.11;100.00;99623.44;5009158;28;19913;-55
2021/10/27 00:54:31;;;;;;;13.77;9.07;;;;;;;8.12;100.00;99618.34;5005779;28;20025;-57
2021/10/27 00:56:58;;;;;;;16.73;9.97;;;;;;;8.16;100.00;99612.44;5003255;28;20056;-55
2021/10/27 00:59:25;;;;;;;12.83;9.00;;;;;;;8.04;100.00;99617.47;5010543;28;20587;-57
2021/10/27 01:01:51;;;;;;;13.00;8.63;;;;;;;7.94;100.00;99612.25;5008338;28;20056;-56
2021/10/27 01:04:17;;;;;;;13.97;10.30;;;;;;;8.19;100.00;99607.31;5007745;28;20033;-55
2021/10/27 01:06:44;;;;;;;16.47;10.77;;;;;;;8.35;100.00;99602.34;5005853;28;20496;-55
2021/10/27 01:09:10;;;;;;;15.63;9.07;;;;;;;8.61;100.00;99606.72;5008988;28;20044;-56
2021/10/27 01:11:35;;;;;;;13.87;9.83;;;;;;;8.76;100.00;99607.66;5007513;28;20525;-56
2021/10/27 01:14:05;;;;;;;15.63;10.37;;;;;;;9.00;100.00;99603.47;5010289;28;20444;-56
2021/10/27 01:16:30;;;;;;;13.57;9.60;;;;;;;9.10;100.00;99602.66;5004754;28;20033;-57
2021/10/27 01:18:56;;;;;;;12.90;9.67;;;;;;;9.21;100.00;99602.66;5010659;28;20034;-54
2021/10/27 01:21:24;;;;;;;14.70;10.97;;;;;;;9.29;100.00;99606.13;5002955;28;20388;-53
2021/10/27 01:23:49;;;;;;;17.40;8.90;;;;;;;9.38;100.00;99602.69;5008877;28;20033;-56
2021/10/27 01:26:15;;;;;;;11.43;8.57;;;;;;;9.35;100.00;99593.31;5010483;28;20029;-55
2021/10/27 01:28:41;;;;;;;12.20;8.63;;;;;;;9.38;100.00;99595.88;5015093;28;20030;-53
2021/10/27 01:31:08;;;;;;;14.23;9.27;;;;;;;9.51;100.00;99596.72;5000497;28;20030;-53
2021/10/27 01:33:34;;;;;;;14.60;10.70;;;;;;;9.49;100.00;99594.19;5005607;28;20032;-55
2021/10/27 01:36:00;;;;;;;14.50;9.10;;;;;;;9.53;100.00;99600.16;5003454;28;20079;-56
2021/10/27 01:38:25;;;;;;;18.27;10.47;;;;;;;9.57;100.00;99596.75;5011299;28;20026;-55
2021/10/27 01:40:51;;;;;;;15.40;8.87;;;;;;;9.63;100.00;99604.44;5006775;28;20179;-56
2021/10/27 01:43:17;;;;;;;17.83;11.27;;;;;;;9.48;100.00;99596.75;5006778;28;20038;-56
2021/10/27 01:45:43;;;;;;;13.27;9.03;;;;;;;9.45;100.00;99605.28;5008068;28;20034;-54
2021/10/27 01:48:09;;;;;;;16.67;10.83;;;;;;;9.43;100.00;99609.53;5005748;28;20080;-55
2021/10/27 01:50:35;;;;;;;18.13;9.57;;;;;;;9.26;100.00;99607.78;5005788;28;20121;-56
2021/10/27 01:53:01;;;;;;;13.97;9.50;;;;;;;9.12;100.00;99602.66;5009216;28;20026;-56
2021/10/27 01:55:27;;;;;;;17.63;9.90;;;;;;;8.88;100.00;99611.09;5013881;28;20305;-54
2021/10/27 01:57:52;;;;;;;13.70;9.77;;;;;;;8.77;100.00;99619.59;5006814;28;20112;-53
2021/10/27 02:00:18;;;;;;;15.67;9.70;;;;;;;8.52;100.00;99609.28;4999400;28;20108;-52
2021/10/27 02:02:44;;;;;;;12.87;8.70;;;;;;;8.30;100.00;99612.56;5007369;28;20038;-53
2021/10/27 02:05:10;;;;;;;11.53;9.10;;;;;;;8.10;100.00;99614.97;5010458;28;20056;-56
2021/10/27 02:07:35;;;;;;;15.60;9.23;;;;;;;7.93;100.00;99615.69;5011031;28;20472;-55
2021/10/27 02:10:04;;;;;;;14.33;8.90;;;;;;;7.75;100.00;99611.28;5006908;28;20029;-54
2021/10/27 02:12:30;;;;;;;14.17;8.57;;;;;;;7.59;100.00;99620.53;5010600;28;20025;-54
2021/10/27 02:14:55;;;;;;;12.33;10.07;;;;;;;7.41;100.00;99617.78;5009150;28;20065;-53
2021/10/27 02:17:21;;;;;;;13.20;9.03;;;;;;;7.35;100.00;99631.34;5010918;28;20064;-53
2021/10/27 02:19:46;;;;;;;12.00;8.80;;;;;;;7.21;100.00;99619.31;5012561;28;20025;-54
2021/10/27 02:22:12;;;;;;;14.03;10.23;;;;;;;7.10;100.00;99618.31;5009406;28;20125;-55
2021/10/27 02:24:38;;;;;;;15.90;9.53;;;;;;;6.97;100.00;99619.88;5010642;28;20476;-53
2021/10/27 02:27:03;;;;;;;13.53;8.70;;;;;;;6.83;100.00;99627.34;5008395;28;20434;-54
2021/10/27 02:29:29;;;;;;;11.43;8.90;;;;;;;6.74;100.00;99629.81;5007607;28;20041;-54
2021/10/27 02:31:54;;;;;;;13.87;9.90;;;;;;;6.67;100.00;99625.47;5015089;28;20033;-53
2021/10/27 02:34:20;;;;;;;15.20;10.53;;;;;;;6.57;100.00;99630.44;5016561;28;20489;-55
2021/10/27 02:36:45;;;;;;;13.47;8.93;;;;;;;6.48;100.00;99630.31;5012219;28;20033;-55
2021/10/27 02:39:11;;;;;;;14.70;8.53;;;;;;;6.34;100.00;99628.44;5005482;28;20029;-56
2021/10/27 02:41:36;;;;;;;14.00;9.17;;;;;;;6.27;100.00;99634.28;5010541;28;20409;-55
2021/10/27 02:44:02;;;;;;;14.07;9.37;;;;;;;6.17;100.00;99629.03;5013583;28;20025;-56
2021/10/27 02:46:27;;;;;;;13.03;8.90;;;;;;;6.04;100.00;99630.53;5008944;28;20069;-53
2021/10/27 02:48:53;;;;;;;13.43;9.43;;;;;;;6.00;100.00;99644.03;5008811;28;20034;-52
2021/10/27 02:51:18;;;;;;;14.27;9.43;;;;;;;5.92;100.00;99646.47;5008986;28;20499;-52
2021/10/27 02:53:44;;;;;;;14.37;10.03;;;;;;;5.83;100.00;99642.88;5011057;28;20601;-56
2021/10/27 02:56:10;;;;;;;13.33;9.67;;;;;;;5.77;100.00;99647.91;5008312;28;20490;-56
2021/10/27 02:58:35;;;;;;;14.67;10.30;;;;;;;5.72;100.00;99655.44;5014505;28;20457;-53
2021/10/27 03:01:01;;;;;;;14.20;9.83;;;;;;;5.67;100.00;99651.09;5010596;28;20618;-57
2021/10/27 03:03:27;;;;;;;18.30;10.63;;;;;;;5.66;100.00;99651.94;5007427;28;20401;-53
2021/10/27 03:05:52;;;;;;;16.67;10.50;;;;;;;5.56;100.00;99652.63;5007951;28;20483;-52
2021/10/27 03:08:18;;;;;;;15.53;9.90;;;;;;;5.51;100.00;99647.47;5005037;28;20351;-56
2021/10/27 03:10:43;;;;;;;16.80;10.57;;;;;;;5.46;100.00;99652.47;5012756;28;20029;-54
2021/10/27 03:13:09;;;;;;;16.70;11.03;;;;;;;5.41;100.00;99658.28;5018651;28;20535;-55
2021/10/27 03:15:34;;;;;;;14.77;10.87;;;;;;;5.35;100.00;99665.78;5007013;28;20160;-57
2021/10/27 03:18:00;;;;;;;14.30;10.03;;;;;;;5.33;100.00;99667.47;5005729;28;20041;-54
2021/10/27 03:20:25;;;;;;;13.93;9.90;;;;;;;5.26;100.00;99665.63;5008199;28;20034;-55
2021/10/27 03:22:51;;;;;;;17.87;10.63;;;;;;;5.23;100.00;99670.66;5008063;28;20092;-57
2021/10/27 03:25:16;;;;;;;14.07;9.80;;;;;;;5.20;100.00;99665.50;5007292;28;20033;-54
2021/10/27 03:27:42;;;;;;;16.03;11.00;;;;;;;5.17;100.00;99666.31;5005966;28;20481;-54
2021/10/27 03:30:08;;;;;;;14.17;9.83;;;;;;;5.14;100.00;99671.31;5003953;28;20089;-57
2021/10/27 03:32:33;;;;;;;16.40;10.70;;;;;;;5.07;100.00;99662.75;5011767;28;20132;-58
2021/10/27 03:34:58;;;;;;;17.00;10.07;;;;;;;4.96;100.00;99653.19;5007037;28;20427;-56
2021/10/27 03:37:24;;;;;;;16.57;9.70;;;;;;;4.95;100.00;99662.50;5011591;28;20031;-55
2021/10/27 03:39:49;;;;;;;14.43;10.43;;;;;;;4.84;100.00;99658.88;5014527;28;20027;-57
2021/10/27 03:42:16;;;;;;;14.80;10.10;;;;;;;4.84;100.00;99663.09;5010131;28;20042;-56
2021/10/27 03:44:41;;;;;;;20.07;9.67;;;;;;;4.79;100.00;99654.53;5003545;28;20459;-58
2021/10/27 03:47:07;;;;;;;15.13;9.20;;;;;;;4.74;100.00;99664.63;5010493;28;20127;-54
2021/10/27 03:49:32;;;;;;;13.43;9.77;;;;;;;4.72;100.00;99665.38;5012068;28;20053;-58
2021/10/27 03:51:58;;;;;;;16.23;9.70;;;;;;;4.69;100.00;99670.41;5011159;28;20064;-55
2021/10/27 03:54:23;;;;;;;14.73;10.17;;;;;;;4.65;100.00;99676.25;5009012;28;20073;-57
2021/10/27 03:56:49;;;;;;;16.97;10.80;;;;;;;4.62;100.00;99677.06;5005788;28;20050;-53
2021/10/27 03:59:15;;;;;;;21.60;11.10;;;;;;;4.57;100.00;99679.50;5006856;28;20175;-56
2021/10/27 04:01:41;;;;;;;16.13;9.70;;;;;;;4.55;100.00;99691.28;5014009;28;20029;-58
2021/10/27 04:04:06;;;;;;;19.67;10.17;;;;;;;4.54;100.00;99691.28;5007209;28;20029;-55
2021/10/27 04:06:32;;;;;;;17.53;10.47;;;;;;;4.50;100.00;99686.91;5008764;28;20038;-55
2021/10/27 04:08:57;;;;;;;15.97;10.03;;;;;;;4.46;100.00;99688.53;5007372;28;20076;-57
2021/10/27 04:11:23;;;;;;;15.50;10.10;;;;;;;4.47;100.00;99685.19;5009723;28;20046;-54
2021/10/27 04:13:48;;;;;;;16.47;10.40;;;;;;;4.48;100.00;99688.59;5007670;28;20407;-57
2021/10/27 04:16:14;;;;;;;17.63;10.30;;;;;;;4.43;100.00;99695.25;5008112;28;20026;-57
2021/10/27 04:18:39;;;;;;;15.97;10.87;;;;;;;4.42;100.00;99699.44;5013737;28;20108;-55
2021/10/27 04:21:05;;;;;;;15.23;9.73;;;;;;;4.42;100.00;99701.13;5005069;28;20026;-58
2021/10/27 04:23:31;;;;;;;18.90;11.83;;;;;;;4.35;100.00;99700.16;5002643;28;20109;-58
2021/10/27 04:25:57;;;;;;;17.73;11.00;;;;;;;4.29;100.00;99697.47;5009465;28;20125;-57
2021/10/27 04:28:22;;;;;;;14.93;10.00;;;;;;;4.28;100.00;99707.59;5011119;28;20033;-57
2021/10/27 04:30:47;;;;;;;19.50;11.70;;;;;;;4.23;100.00;99707.47;5007660;28;20037;-56
2021/10/27 04:33:18;;;;;;;15.57;10.33;;;;;;;4.23;100.00;99707.47;5008961;28;20480;-55
2021/10/27 04:35:45;;;;;;;16.53;10.63;;;;;;;4.18;100.00;99711.59;5005071;28;20029;-57
2021/10/27 04:38:10;;;;;;;14.60;10.37;;;;;;;4.14;100.00;99709.81;5009643;28;20045;-58
2021/10/27 04:40:36;;;;;;;18.87;11.53;;;;;;;4.14;100.00;99719.94;5009334;28;20026;-58
2021/10/27 04:43:01;;;;;;;17.77;10.73;;;;;;;4.08;100.00;99718.13;5004444;28;20109;-56
2021/10/27 04:45:28;;;;;;;18.63;11.20;;;;;;;4.05;100.00;99722.25;5008802;28;20506;-57
2021/10/27 04:47:54;;;;;;;16.53;11.97;;;;;;;3.99;100.00;99719.56;5007699;28;20061;-57
2021/10/27 04:50:19;;;;;;;13.23;9.57;;;;;;;3.98;100.00;99718.72;5006088;28;20111;-59
2021/10/27 04:52:44;;;;;;;17.57;11.47;;;;;;;3.96;100.00;99711.88;5007428;28;20103;-58
2021/10/27 04:55:10;;;;;;;21.43;12.33;;;;;;;3.95;100.00;99710.16;5015661;28;20495;-58
2021/10/27 04:57:35;;;;;;;19.77;11.70;;;;;;;3.98;100.00;99721.28;5013626;28;20052;-55
2021/10/27 05:00:01;;;;;;;22.87;12.37;;;;;;;3.96;100.00;99720.34;5002900;28;20026;-57
2021/10/27 05:02:26;;;;;;;17.27;10.90;;;;;;;3.96;100.00;99720.34;5005146;28;20044;-58
2021/10/27 05:04:52;;;;;;;18.87;11.03;;;;;;;3.91;100.00;99714.31;5007945;28;20054;-57
2021/10/27 05:07:18;;;;;;;19.43;12.57;;;;;;;3.89;100.00;99713.44;5008840;28;20396;-57
2021/10/27 05:09:44;;;;;;;16.47;11.17;;;;;;;3.86;100.00;99717.56;5004739;28;20064;-53
2021/10/27 05:12:10;;;;;;;26.97;13.40;;;;;;;3.87;100.00;99712.50;5007753;28;20464;-55
2021/10/27 05:14:37;;;;;;;27.80;15.10;;;;;;;3.88;100.00;99706.63;5007274;28;20037;-58
2021/10/27 05:17:11;;;;;;;28.00;15.13;;;;;;;3.82;100.00;99714.06;5004742;28;20604;-57
2021/10/27 05:19:41;;;;;;;28.57;14.27;;;;;;;3.82;100.00;99719.16;5010891;28;20072;-57
2021/10/27 05:22:08;;;;;;;31.13;15.83;;;;;;;3.78;100.00;99724.97;5011103;28;20526;-57
2021/10/27 05:24:35;;;;;;;25.50;13.13;;;;;;;3.77;100.00;99722.41;5011372;28;20049;-55
2021/10/27 05:27:00;;;;;;;27.73;15.13;;;;;;;3.68;100.00;99720.50;5006830;28;20203;-59
2021/10/27 05:29:26;;;;;;;20.90;12.90;;;;;;;3.68;100.00;99730.63;5004386;28;20484;-55
2021/10/27 05:31:51;;;;;;;23.63;12.37;;;;;;;3.61;100.00;99724.53;5012723;28;20075;-57
2021/10/27 05:34:17;;;;;;;23.13;14.07;;;;;;;3.63;100.00;99733.06;5016165;28;20030;-55
2021/10/27 05:36:43;;;;;;;23.93;14.20;;;;;;;3.69;100.00;99738.25;5009398;28;20045;-56
2021/10/27 05:39:11;;;;;;;19.70;12.60;;;;;;;3.74;100.00;99737.53;5004365;28;20026;-54
2021/10/27 05:41:39;;;;;;;25.60;14.47;;;;;;;3.73;100.00;99745.97;5007812;28;20065;-56
2021/10/27 05:44:04;;;;;;;21.00;13.17;;;;;;;3.78;100.00;99739.34;5014499;28;20065;-55
2021/10/27 05:46:30;;;;;;;19.90;13.80;;;;;;;3.83;100.00;99742.84;5012145;28;20077;-56
2021/10/27 05:49:01;;;;;;;28.63;15.57;;;;;;;3.85;100.00;99749.69;5014779;28;20060;-57
2021/10/27 05:56:54;;;;;;;22.67;13.50;;;;;;;4.00;100.00;99762.75;5010476;28;20056;-56
2021/10/27 05:59:19;;;;;;;25.97;15.50;;;;;;;4.05;100.00;99763.72;5014950;28;20026;-55
2021/10/27 06:01:45;;;;;;;21.53;13.73;;;;;;;4.24;100.00;99767.59;5013794;28;20029;-56
2021/10/27 06:04:10;;;;;;;24.97;14.07;;;;;;;4.30;100.00;99761.78;5014818;28;20029;-58
2021/10/27 06:06:37;;;;;;;23.70;13.80;;;;;;;4.39;100.00;99767.94;5007897;28;20159;-56
2021/10/27 06:09:03;;;;;;;17.63;12.07;;;;;;;4.45;100.00;99765.56;5017207;28;20029;-57
2021/10/27 06:11:28;;;;;;;16.87;12.17;;;;;;;4.53;100.00;99769.13;5011262;28;20601;-56
2021/10/27 06:13:53;;;;;;;21.03;11.53;;;;;;;4.62;100.00;99765.09;5016150;28;20029;-55
2021/10/27 06:16:19;;;;;;;16.33;11.13;;;;;;;4.71;100.00;99755.97;5011650;28;20072;-54
2021/10/27 06:18:44;;;;;;;23.93;12.57;;;;;;;4.84;100.00;99764.72;5008448;28;20026;-54
2021/10/27 06:21:13;;;;;;;42.60;22.50;;;;;;;5.09;100.00;99768.66;5011326;28;20068;-54
2021/10/27 06:23:39;;;;;;;59.53;28.23;;;;;;;5.23;100.00;99770.66;5015151;28;20136;-56
2021/10/27 06:26:05;;;;;;;53.63;28.50;;;;;;;5.38;100.00;99780.28;5011571;28;20521;-57
2021/10/27 06:28:36;;;;;;;53.43;26.87;;;;;;;5.53;100.00;99776.34;5009115;28;20026;-57
2021/10/27 06:31:12;;;;;;;50.47;27.27;;;;;;;5.66;100.00;99781.66;5007954;28;20450;-55
2021/10/27 06:33:56;;;;;;;58.90;28.50;;;;;;;5.77;100.00;99792.91;5008482;28;20018;-56
2021/10/27 06:36:31;;;;;;;48.47;24.37;;;;;;;5.93;100.00;99797.50;5011033;28;20090;-56
2021/10/27 06:39:29;;;;;;;41.57;21.17;;;;;;;6.05;100.00;99792.63;5013293;28;20034;-58
2021/10/27 06:47:25;;;;;;;24.13;15.37;;;;;;;6.52;100.00;99800.19;5008020;28;20418;-54
2021/10/27 06:49:50;;;;;;;24.70;13.90;;;;;;;6.67;100.00;99796.19;5013054;28;20034;-55
2021/10/27 06:52:16;;;;;;;19.40;13.10;;;;;;;6.82;100.00;99801.53;5012531;28;20377;-57
2021/10/27 06:54:41;;;;;;;17.93;12.53;;;;;;;6.90;100.00;99791.44;5012093;28;20030;-55
2021/10/27 06:57:07;;;;;;;18.73;12.57;;;;;;;7.06;100.00;99798.44;5006387;28;20176;-53
2021/10/27 06:59:35;;;;;;;17.90;12.27;;;;;;;7.20;100.00;99806.28;5006452;28;20041;-53
2021/10/27 07:17:33;;;;;;;15.37;10.93;;;;;;;8.28;100.00;99804.09;5010543;28;20123;-52
2021/10/27 07:20:07;;;;;;;22.20;11.43;;;;;;;8.51;100.00;99811.16;5008299;28;20069;-54
2021/10/27 07:22:34;;;;;;;15.67;10.93;;;;;;;8.62;100.00;99814.63;5006511;28;20462;-58
2021/10/27 07:25:00;;;;;;;16.77;11.03;;;;;;;8.71;100.00;99813.00;5007548;28;20073;-58
2021/10/27 07:27:26;;;;;;;16.23;10.30;;;;;;;8.84;100.00;99811.41;5009037;28;20431;-58
2021/10/27 07:29:51;;;;;;;16.67;12.10;;;;;;;9.01;100.00;99809.81;5007488;28;20033;-57
2021/10/27 07:32:17;;;;;;;19.80;11.47;;;;;;;9.16;100.00;99814.16;5006547;28;20029;-57
2021/10/27 07:35:00;;;;;;;17.27;11.40;;;;;;;9.34;100.00;99810.81;5007899;28;20025;-58
2021/10/27 07:43:38;;;;;;;16.60;11.63;;;;;;;9.87;100.00;99813.59;5004666;28;20709;-58
2021/10/27 07:45:57;;;;;;;17.27;11.55;;;;;;;9.97;100.00;99805.94;5005244;28;20042;-56
2021/10/27 07:48:23;;;;;;;16.80;12.23;;;;;;;10.12;100.00;99804.25;5008556;28;20749;-57
2021/10/27 07:50:48;;;;;;;16.27;11.83;;;;;;;10.25;100.00;99806.03;5006991;28;20036;-58
2021/10/27 07:53:14;;;;;;;16.23;11.80;;;;;;;10.39;100.00;99801.78;5007551;28;20037;-56
2021/10/27 07:55:46;;;;;;;14.90;12.00;;;;;;;10.53;100.00;99808.59;5008589;28;20049;-59
2021/10/27 07:58:13;;;;;;;17.83;12.25;;;;;;;10.65;100.00;99812.03;5006380;28;20030;-59
2021/10/27 08:00:40;;;;;;;13.50;10.55;;;;;;;10.77;100.00;99805.19;5003033;28;20452;-57
2021/10/27 08:03:05;;;;;;;17.98;11.95;;;;;;;10.88;100.00;99808.59;5007521;28;20084;-56
2021/10/27 08:05:40;;;;;;;18.23;12.27;;;;;;;11.01;100.00;99809.41;5006177;28;20472;-59
2021/10/27 08:08:08;;;;;;;16.05;11.68;;;;;;;11.14;100.00;99810.25;5004533;28;20786;-56
2021/10/27 08:10:33;;;;;;;19.95;11.75;;;;;;;11.20;100.00;99805.94;5005175;28;20642;-56
2021/10/27 08:13:00;;;;;;;19.92;13.27;;;;;;;11.27;100.00;99806.78;5005899;28;20083;-55
2021/10/27 08:15:26;;;;;;;14.75;10.95;;;;;;;11.31;100.00;99795.66;5006984;28;20369;-55
2021/10/27 08:17:52;;;;;;;15.63;11.25;;;;;;;11.44;100.00;99803.31;5006204;28;20037;-54
2021/10/27 08:20:20;;;;;;;16.90;12.13;;;;;;;11.55;100.00;99803.25;5004632;28;20574;-54
2021/10/27 08:22:50;;;;;;;17.40;12.70;;;;;;;11.60;100.00;99806.66;5005773;28;20018;-56
2021/10/27 08:25:26;;;;;;;35.95;14.68;;;;;;;11.68;100.00;99815.19;5008161;28;20033;-55
2021/10/27 08:27:51;;;;;;;17.92;13.13;;;;;;;11.87;100.00;99814.28;5005553;28;20119;-58
2021/10/27 08:30:19;;;;;;;15.25;11.65;;;;;;;11.94;100.00;99816.81;5003074;28;20433;-57
2021/10/27 08:32:54;;;;;;;15.00;11.32;;;;;;;12.08;100.00;99815.03;5007084;28;20022;-56
2021/10/27 08:35:20;;;;;;;20.35;12.02;;;;;;;12.27;100.00;99821.72;5009048;28;20502;-57
2021/10/27 08:37:48;;;;;;;16.33;11.57;;;;;;;12.36;100.00;99814.81;5002495;28;20029;-57
2021/10/27 08:40:20;;;;;;;15.88;11.63;;;;;;;12.45;100.00;99816.47;5006578;28;20033;-57
2021/10/27 08:42:46;;;;;;;13.85;11.88;;;;;;;12.59;100.00;99812.09;5000855;28;20041;-59
2021/10/27 08:45:12;;;;;;;15.60;11.90;;;;;;;12.67;100.00;99818.00;5003355;28;20068;-58
2021/10/27 08:47:39;;;;;;;17.27;12.30;;;;;;;12.59;100.00;99812.09;5006392;28;20435;-59
2021/10/27 08:50:09;;;;;;;13.48;10.55;;;;;;;12.78;100.00;99803.31;5003049;28;20021;-58
2021/10/27 08:52:34;;;;;;;20.65;13.20;;;;;;;12.82;100.00;99807.56;5002756;28;20080;-53
2021/10/27 08:55:00;;;;;;;17.50;12.50;;;;;;;12.87;100.00;99804.09;5002764;28;20318;-58
2021/10/27 08:57:26;;;;;;;17.23;12.27;;;;;;;13.04;100.00;99807.38;5003984;28;20061;-58
2021/10/27 08:59:59;;;;;;;17.15;12.98;;;;;;;13.07;100.00;99802.22;5001365;28;20026;-58
2021/10/27 09:39:03;;;;;;;15.18;10.35;;;;;;;14.85;91.78;99800.63;5003439;28;20479;-58
2021/10/27 10:06:13;;;;;;;10.80;8.40;;;;;;;16.53;67.29;99770.34;5011065;28;20091;-58
2021/10/27 10:08:42;;;;;;;10.93;8.02;;;;;;;16.54;65.74;99764.31;5003929;28;20584;-59
2021/10/27 10:11:10;;;;;;;11.20;9.38;;;;;;;16.41;65.63;99761.16;5005114;28;20038;-60
2021/10/27 10:13:36;;;;;;;8.30;7.50;;;;;;;16.43;66.43;99762.81;5002129;28;20053;-57
2021/10/27 10:16:02;;;;;;;9.73;6.72;;;;;;;16.49;65.51;99760.97;5007747;28;20065;-58
2021/10/27 10:18:29;;;;;;;11.02;7.85;;;;;;;16.33;64.77;99770.84;5007770;28;20112;-60
2021/10/27 10:20:55;;;;;;;9.07;6.88;;;;;;;16.13;64.37;99767.88;5008178;28;20428;-60
2021/10/27 10:23:25;;;;;;;10.40;7.95;;;;;;;16.21;64.89;99769.38;5013343;28;20026;-58
2021/10/27 10:25:56;;;;;;;9.02;6.78;;;;;;;16.38;65.10;99762.06;5008876;28;20465;-58
2021/10/27 10:28:25;;;;;;;7.68;6.88;;;;;;;16.37;62.39;99750.03;5004849;28;20037;-55
2021/10/27 10:31:04;;;;;;;8.35;7.05;;;;;;;16.32;63.36;99751.88;5008049;28;20083;-59
2021/10/27 10:33:44;;;;;;;10.65;6.72;;;;;;;16.11;63.68;99754.97;5019992;28;20030;-58
2021/10/27 10:36:23;;;;;;;7.30;6.28;;;;;;;16.18;63.94;99751.34;5012635;28;20026;-59
2021/10/27 11:40:11;;;;;;;8.48;6.60;;;;;;;16.35;62.15;99701.78;5009661;28;20515;-59
2021/10/27 11:51:14;;;;;;;12.13;7.28;;;;;;;16.10;62.85;99690.31;5009362;28;20030;-57
2021/10/27 11:53:47;;;;;;;8.80;6.90;;;;;;;16.20;62.31;99684.06;5006694;28;20044;-59
2021/10/27 11:56:19;;;;;;;7.28;6.10;;;;;;;16.32;62.54;99686.31;5007364;28;20467;-57
2021/10/27 11:58:48;;;;;;;7.35;6.30;;;;;;;16.20;62.82;99689.22;4995299;28;20163;-56
2021/10/27 12:01:36;;;;;;;7.57;6.70;;;;;;;16.15;62.87;99676.41;5010351;28;20367;-59
2021/10/27 12:04:04;;;;;;;7.78;6.95;;;;;;;16.08;62.40;99676.59;5007330;28;20026;-60
2021/10/27 12:19:24;;;;;;;7.15;6.45;;;;;;;15.91;63.29;99669.25;5011194;28;20167;-62
2021/10/27 12:21:54;;;;;;;9.48;5.70;;;;;;;16.00;63.55;99666.41;5006526;28;20627;-60
2021/10/27 12:24:22;;;;;;;7.25;5.55;;;;;;;16.16;63.57;99667.75;5007217;28;20479;-60
2021/10/27 12:27:02;;;;;;;6.15;5.55;;;;;;;16.32;63.23;99663.88;5005982;28;20484;-59
2021/10/27 12:29:38;;;;;;;7.57;5.70;;;;;;;16.43;61.30;99667.03;5006000;28;20045;-57
2021/10/27 12:32:15;;;;;;;9.95;6.13;;;;;;;16.36;61.01;99668.09;5004649;28;20032;-60
2021/10/27 12:34:52;;;;;;;6.25;5.65;;;;;;;16.18;61.70;99658.19;5003521;28;20113;-59
2021/10/27 12:37:27;;;;;;;8.20;5.68;;;;;;;16.26;61.57;99661.44;5008753;28;20037;-61
2021/10/27 12:40:08;;;;;;;6.18;5.38;;;;;;;16.23;61.40;99661.53;5006428;28;20029;-59
2021/10/27 12:42:33;;;;;;;7.45;5.82;;;;;;;16.24;61.11;99664.97;5005138;28;20083;-58
2021/10/27 12:44:59;;;;;;;6.05;5.43;;;;;;;16.21;60.47;99665.88;5007874;28;20493;-59
2021/10/27 12:47:27;;;;;;;8.23;5.80;;;;;;;16.25;60.42;99656.31;5006156;28;20022;-57
2021/10/27 12:50:13;;;;;;;6.68;4.97;;;;;;;16.30;60.46;99662.22;5005766;28;20129;-59
2021/10/27 12:52:59;;;;;;;9.77;6.10;;;;;;;16.20;60.44;99656.44;5004891;28;20037;-58
2021/10/27 12:55:26;;;;;;;8.68;6.28;;;;;;;16.14;60.53;99651.41;5006134;28;20037;-60
2021/10/27 13:11:52;;;;;;;7.95;5.88;;;;;;;16.36;60.22;99625.84;5004330;28;20080;-58
2021/10/27 13:15:06;;;;;;;7.18;5.38;;;;;;;16.23;60.86;99629.63;5004357;28;20472;-58
2021/10/27 13:30:36;;;;;;;7.40;4.40;;;;;;;16.24;60.95;99628.75;5001676;28;20049;-58
2021/10/27 13:33:07;;;;;;;6.28;4.75;;;;;;;16.27;61.44;99624.34;5005268;28;20056;-58
2021/10/27 13:35:35;;;;;;;10.55;5.43;;;;;;;16.12;62.52;99622.16;5001776;28;20030;-56
2021/10/27 13:38:03;;;;;;;6.03;5.43;;;;;;;16.21;61.85;99627.06;5000362;28;20108;-58
2021/10/27 13:40:30;;;;;;;6.57;5.03;;;;;;;16.18;61.63;99623.72;5003229;28;20042;-60
2021/10/27 13:43:40;;;;;;;5.40;4.57;;;;;;;16.24;61.01;99623.56;5003581;28;20410;-62
2021/10/27 14:14:37;;;;;;;6.80;4.57;;;;;;;16.06;60.96;99616.28;4993381;28;20046;-58
2021/10/27 14:19:36;;;;;;;9.15;6.00;;;;;;;15.73;62.20;99615.38;4988233;28;20655;-57
2021/10/27 15:19:52;;;;;;;5.53;5.03;;;;;;;13.33;90.96;99609.63;5010787;28;20507;-55
2021/10/27 15:40:50;;;;;;;8.48;4.80;;;;;;;12.36;100.00;99618.53;5014634;28;20033;-57
2021/10/27 15:51:05;;;;;;;25.38;15.55;;;;;;;11.82;100.00;99619.88;5009207;28;20444;-58
2021/10/27 15:53:30;;;;;;;19.60;12.95;;;;;;;11.72;100.00;99623.38;5005974;28;20594;-58
2021/10/27 15:55:56;;;;;;;16.30;11.35;;;;;;;11.59;100.00;99608.88;5005220;28;20140;-59
2021/10/27 15:58:22;;;;;;;18.42;9.48;;;;;;;11.47;100.00;99622.69;4999148;28;20049;-57
2021/10/27 16:00:48;;;;;;;8.68;6.55;;;;;;;11.40;100.00;99621.88;5009237;28;20034;-57
2021/10/27 16:03:15;;;;;;;9.50;7.97;;;;;;;11.29;100.00;99626.22;5008262;28;20511;-58
2021/10/27 16:05:43;;;;;;;11.80;7.13;;;;;;;11.16;100.00;99614.31;5007585;28;20034;-57
2021/10/27 16:08:12;;;;;;;7.05;6.00;;;;;;;11.10;100.00;99618.63;5009494;28;20472;-55
2021/10/27 16:10:38;;;;;;;7.90;5.72;;;;;;;10.94;100.00;99617.88;5009761;28;20109;-62
2021/10/27 16:13:04;;;;;;;12.80;5.70;;;;;;;10.86;100.00;99623.00;5007291;28;20056;-56
2021/10/27 16:18:06;;;;;;;7.93;5.30;;;;;;;10.71;100.00;99620.50;5008172;28;20469;-57
2021/10/27 16:20:33;;;;;;;8.43;5.65;;;;;;;10.62;100.00;99630.81;5008351;28;20029;-56
2021/10/27 16:22:59;;;;;;;7.68;5.95;;;;;;;10.53;100.00;99633.38;5006557;28;20025;-56
2021/10/27 16:25:25;;;;;;;6.45;5.85;;;;;;;10.46;100.00;99634.28;5005615;28;20112;-56
2021/10/27 16:27:51;;;;;;;9.02;6.00;;;;;;;10.36;100.00;99636.00;5009525;28;20040;-55
2021/10/27 16:30:17;;;;;;;7.28;5.07;;;;;;;10.29;100.00;99636.00;5007603;28;20033;-56
2021/10/27 16:32:43;;;;;;;10.45;5.38;;;;;;;10.24;100.00;99638.59;5004936;28;20038;-56
2021/10/27 16:35:08;;;;;;;11.27;5.25;;;;;;;10.15;100.00;99640.25;5007995;28;20200;-58
2021/10/27 16:37:34;;;;;;;7.50;5.40;;;;;;;10.08;100.00;99642.84;5010545;28;20025;-57
2021/10/27 16:40:00;;;;;;;9.75;6.22;;;;;;;10.04;100.00;99643.72;5007401;28;20025;-58
2021/10/27 16:42:27;;;;;;;7.60;6.28;;;;;;;9.96;100.00;99645.44;5006614;28;20040;-59
2021/10/27 16:44:53;;;;;;;7.70;6.85;;;;;;;9.89;100.00;99643.69;5007843;28;20091;-57